Time;durP1;ratioP1;P1;durP2;ratioP2;P2;SDS_P1;SDS_P2;PMS_P1;PMS_P2;Temp;Humidity;BMP_temperature;BMP_pressure;BME280_temperature;BME280_humidity;BME280_pressure;Samples;Min_cycle;Max_cycle;Signal;HPM_P1;HPM_P2
2023/03/30 00:00:46;;;;;;;6.68;2.70;;;;;;;13.90;57.99;100145.59;4162534;28;20045;-69
2023/03/30 00:02:52;;;;;;;7.70;2.67;;;;;;;13.89;58.24;100141.22;4132961;28;20073;-69
2023/03/30 00:04:55;;;;;;;5.97;2.50;;;;;;;13.90;57.88;100129.00;4161192;28;20041;-70
2023/03/30 00:06:59;;;;;;;6.22;2.78;;;;;;;13.91;57.66;100135.97;4148080;28;20124;-70
2023/03/30 00:09:05;;;;;;;9.63;3.15;;;;;;;13.89;58.22;100128.16;4161952;28;20045;-70
2023/03/30 00:11:10;;;;;;;6.75;2.53;;;;;;;13.90;58.22;100118.56;4162719;28;20037;-70
2023/03/30 00:13:15;;;;;;;6.25;2.60;;;;;;;13.90;58.62;100129.00;4163023;28;20048;-69
2023/03/30 00:15:21;;;;;;;8.10;2.88;;;;;;;13.85;58.73;100118.59;4162084;28;20049;-69
2023/03/30 00:17:24;;;;;;;13.55;2.90;;;;;;;13.84;58.59;100121.22;4162210;28;20044;-69
2023/03/30 00:19:27;;;;;;;8.73;2.75;;;;;;;13.83;59.00;100125.56;4163000;28;20038;-70
2023/03/30 00:21:30;;;;;;;9.45;2.95;;;;;;;13.86;58.91;100120.34;4152333;28;20045;-69
2023/03/30 00:23:33;;;;;;;10.73;3.33;;;;;;;13.82;59.14;100121.22;4154341;28;20046;-69
2023/03/30 00:25:36;;;;;;;7.32;2.88;;;;;;;13.82;59.09;100116.00;4161494;28;20037;-70
2023/03/30 00:27:40;;;;;;;6.93;2.80;;;;;;;13.83;58.65;100122.06;4149337;28;20084;-70
2023/03/30 00:29:44;;;;;;;9.00;3.00;;;;;;;13.82;58.82;100112.53;4161998;28;20048;-70
2023/03/30 00:31:47;;;;;;;10.35;3.35;;;;;;;13.81;59.32;100116.84;4149879;28;20527;-70
2023/03/30 00:33:51;;;;;;;8.52;2.67;;;;;;;13.78;59.56;100115.16;4159012;28;20061;-70
2023/03/30 00:35:55;;;;;;;10.57;2.57;;;;;;;13.78;59.35;100115.16;4161938;28;20038;-70
2023/03/30 00:38:00;;;;;;;8.38;2.38;;;;;;;13.76;59.19;100116.03;4129990;28;20073;-70
2023/03/30 00:40:06;;;;;;;7.28;2.78;;;;;;;13.77;58.87;100118.63;4143872;28;20483;-69
2023/03/30 00:42:15;;;;;;;7.70;2.55;;;;;;;13.79;58.76;100116.88;4144979;28;20499;-70
2023/03/30 00:44:57;;;;;;;8.23;2.75;;;;;;;13.83;58.87;100107.28;4151267;28;20057;-69
2023/03/30 00:47:01;;;;;;;9.30;2.63;;;;;;;13.78;59.22;100109.03;4152313;28;20561;-70
2023/03/30 00:49:07;;;;;;;6.88;2.17;;;;;;;13.77;59.53;100109.94;4147863;28;20050;-70
2023/03/30 00:51:12;;;;;;;11.73;3.13;;;;;;;13.85;59.20;100099.44;4147931;28;20045;-69
2023/03/30 00:53:21;;;;;;;8.52;2.55;;;;;;;13.79;58.81;100101.19;4149991;28;20037;-70
2023/03/30 00:55:28;;;;;;;8.90;2.78;;;;;;;13.79;59.24;100100.34;4161644;28;20033;-70
2023/03/30 00:57:32;;;;;;;9.20;2.97;;;;;;;13.89;58.70;100096.78;4151743;28;20076;-70
2023/03/30 00:59:35;;;;;;;7.30;2.50;;;;;;;13.81;58.43;100097.72;4154827;28;20072;-70
2023/03/30 01:01:39;;;;;;;6.63;2.88;;;;;;;13.80;58.31;100096.84;4143790;28;20431;-70
2023/03/30 01:03:46;;;;;;;15.15;2.72;;;;;;;13.83;58.48;100095.94;4144475;28;20499;-70
2023/03/30 01:05:51;;;;;;;12.98;3.65;;;;;;;13.82;58.35;100099.47;4147753;28;20038;-70
2023/03/30 01:07:56;;;;;;;8.00;2.30;;;;;;;13.82;58.19;100100.31;4147080;28;20466;-70
2023/03/30 01:10:01;;;;;;;9.68;2.95;;;;;;;13.84;58.36;100109.00;4162080;28;20045;-70
2023/03/30 01:12:04;;;;;;;8.82;3.10;;;;;;;13.87;58.10;100114.25;4134054;28;20041;-70
2023/03/30 01:14:11;;;;;;;8.88;3.08;;;;;;;13.90;58.50;100109.00;4138183;28;20066;-69
2023/03/30 01:16:26;;;;;;;13.05;3.55;;;;;;;13.89;58.35;100103.78;4161085;28;20045;-70
2023/03/30 01:18:39;;;;;;;9.43;3.03;;;;;;;13.83;58.07;100098.56;4147190;28;20434;-70
2023/03/30 01:21:22;;;;;;;10.38;2.92;;;;;;;13.86;58.35;100094.19;4157733;28;20095;-69
2023/03/30 01:24:04;;;;;;;13.80;2.60;;;;;;;13.87;57.48;100095.94;4159685;28;20140;-69
2023/03/30 01:26:35;;;;;;;9.43;2.22;;;;;;;13.83;57.46;100094.22;4145166;28;20120;-70
2023/03/30 01:28:47;;;;;;;6.95;2.70;;;;;;;13.89;56.99;100099.41;4160401;28;20455;-70
2023/03/30 01:31:24;;;;;;;10.23;3.63;;;;;;;13.91;56.99;100097.66;4161506;28;20042;-70
2023/03/30 01:33:49;;;;;;;10.70;3.55;;;;;;;13.94;56.56;100097.66;4127094;28;20042;-70
2023/03/30 01:36:10;;;;;;;7.63;2.33;;;;;;;13.93;57.43;100100.25;4160914;28;20045;-70
2023/03/30 01:38:52;;;;;;;9.93;3.28;;;;;;;13.95;57.56;100096.75;4147615;28;20038;-70
2023/03/30 01:41:02;;;;;;;13.80;2.80;;;;;;;13.93;56.80;100110.69;4087724;28;20061;-70
2023/03/30 01:43:16;;;;;;;6.97;2.30;;;;;;;13.96;57.09;100108.97;4144187;28;20033;-69
2023/03/30 01:45:30;;;;;;;14.00;2.65;;;;;;;13.94;57.54;100105.50;4147129;28;20483;-69
2023/03/30 01:47:37;;;;;;;9.73;2.50;;;;;;;13.96;57.20;100090.66;4144393;28;20474;-70
2023/03/30 01:49:45;;;;;;;9.88;2.53;;;;;;;13.94;57.47;100092.44;4161803;28;20071;-70
2023/03/30 01:52:01;;;;;;;8.38;2.55;;;;;;;13.95;57.21;100086.31;4155392;28;20029;-70
2023/03/30 01:54:05;;;;;;;;;;;;;;;13.87;57.49;100088.13;4148945;28;20041;-70
2023/03/30 01:56:15;;;;;;;11.35;3.60;;;;;;;13.93;56.98;100093.28;4149600;28;19932;-70
2023/03/30 01:58:23;;;;;;;10.60;2.25;;;;;;;14.05;56.45;100101.94;4169025;28;20049;-70
2023/03/30 02:00:28;;;;;;;12.52;2.47;;;;;;;14.08;55.85;100102.78;4159702;28;20187;-70
2023/03/30 02:02:32;;;;;;;8.52;2.58;;;;;;;14.18;56.20;100108.84;4143562;28;20030;-70
2023/03/30 02:04:40;;;;;;;7.43;2.13;;;;;;;14.27;56.11;100108.75;4144607;28;20041;-70
2023/03/30 02:06:50;;;;;;;10.95;2.97;;;;;;;14.30;55.92;100106.13;4160781;28;20029;-70
2023/03/30 02:08:59;;;;;;;10.32;2.42;;;;;;;14.32;55.98;100109.63;4150730;28;20045;-69
2023/03/30 02:11:01;;;;;;;11.68;2.92;;;;;;;14.32;55.80;100122.69;4148924;28;20052;-69
2023/03/30 02:13:07;;;;;;;9.75;2.63;;;;;;;14.37;55.72;100129.63;4144159;28;20466;-70
2023/03/30 02:15:12;;;;;;;9.55;2.75;;;;;;;14.42;55.04;100120.88;4145278;28;20037;-69
2023/03/30 02:17:18;;;;;;;10.82;2.72;;;;;;;14.56;55.70;100125.13;4149055;28;20037;-69
2023/03/30 02:19:21;;;;;;;10.55;3.30;;;;;;;14.63;55.88;100116.38;4150714;28;20099;-70
2023/03/30 02:21:25;;;;;;;11.02;2.28;;;;;;;14.66;56.49;100096.31;4140208;28;20038;-70
2023/03/30 02:23:34;;;;;;;8.60;2.60;;;;;;;14.62;58.33;100067.56;4142709;28;20038;-70
2023/03/30 02:25:38;;;;;;;9.52;3.75;;;;;;;14.57;58.66;100058.84;4130693;28;20297;-70
2023/03/30 02:27:41;;;;;;;8.90;2.53;;;;;;;14.52;59.09;100079.81;4134942;28;20053;-70
2023/03/30 02:29:46;;;;;;;9.82;3.30;;;;;;;14.31;60.79;100105.25;4132005;28;20408;-70
2023/03/30 02:31:52;;;;;;;11.05;2.80;;;;;;;14.26;60.38;100103.56;4142259;28;20042;-70
2023/03/30 02:34:09;;;;;;;9.52;2.53;;;;;;;14.28;60.73;100110.50;4158126;28;20550;-70
2023/03/30 02:36:33;;;;;;;21.08;4.07;;;;;;;14.27;61.51;100120.97;4159962;28;20038;-70
2023/03/30 02:38:56;;;;;;;12.02;2.83;;;;;;;14.20;62.36;100117.53;4147226;28;20034;-70
2023/03/30 02:41:08;;;;;;;8.43;2.13;;;;;;;14.16;62.10;100121.03;4120314;28;20501;-70
2023/03/30 02:43:37;;;;;;;11.18;2.75;;;;;;;14.18;62.57;100106.22;4142336;28;20207;-70
2023/03/30 02:45:52;;;;;;;9.65;2.75;;;;;;;14.14;63.16;100088.81;4135114;28;20046;-70
2023/03/30 02:48:06;;;;;;;12.52;2.50;;;;;;;14.06;62.79;100086.25;4139931;28;20034;-70
2023/03/30 02:50:17;;;;;;;10.57;2.75;;;;;;;14.03;63.14;100088.00;4146133;28;20037;-70
2023/03/30 02:52:35;;;;;;;10.93;4.10;;;;;;;14.02;63.21;100105.44;4166504;28;20048;-70
2023/03/30 02:54:49;;;;;;;12.25;3.42;;;;;;;14.00;63.67;100109.78;4150603;28;20467;-70
2023/03/30 02:56:57;;;;;;;11.32;3.13;;;;;;;13.95;64.01;100111.59;4163960;28;20072;-70
2023/03/30 02:59:04;;;;;;;13.95;2.92;;;;;;;13.93;64.17;100123.78;4147970;28;20121;-70
2023/03/30 03:01:15;;;;;;;13.48;2.50;;;;;;;13.91;64.01;100118.56;4134644;28;20042;-70
2023/03/30 03:03:34;;;;;;;13.98;2.95;;;;;;;13.94;64.19;100122.91;4149641;28;20514;-70
2023/03/30 03:05:38;;;;;;;16.48;3.15;;;;;;;13.91;64.51;100109.84;4151438;28;20043;-70
2023/03/30 03:07:47;;;;;;;13.82;2.67;;;;;;;13.90;64.19;100109.00;4144340;28;20045;-70
2023/03/30 03:09:49;;;;;;;8.80;2.45;;;;;;;13.88;64.48;100097.66;4164534;28;20046;-70
2023/03/30 03:11:53;;;;;;;7.68;2.03;;;;;;;13.81;64.88;100093.34;4139508;28;20038;-70
2023/03/30 03:13:56;;;;;;;12.75;2.70;;;;;;;13.83;63.75;100089.00;4150716;28;20129;-70
2023/03/30 03:16:00;;;;;;;11.52;3.58;;;;;;;13.87;64.24;100098.56;4163587;28;20045;-69
2023/03/30 03:18:07;;;;;;;12.98;3.38;;;;;;;13.87;64.62;100088.13;4141666;28;20407;-70
2023/03/30 03:20:11;;;;;;;;;;;;;;;13.77;64.29;100076.81;4146356;28;20129;-70
2023/03/30 03:22:14;;;;;;;14.02;3.30;;;;;;;13.81;63.29;100077.66;4160025;28;20446;-70
2023/03/30 03:24:17;;;;;;;15.07;3.72;;;;;;;13.85;63.30;100079.41;4146775;28;20125;-70
2023/03/30 03:26:46;;;;;;;12.25;3.15;;;;;;;13.91;62.96;100079.34;4161591;28;20044;-69
2023/03/30 03:28:49;;;;;;;9.68;2.30;;;;;;;13.87;63.42;100080.28;4154172;28;20125;-69
2023/03/30 03:30:53;;;;;;;13.52;2.88;;;;;;;13.89;62.98;100075.91;4142447;28;20531;-69
2023/03/30 03:32:58;;;;;;;12.48;2.90;;;;;;;13.88;63.73;100061.09;4163125;28;20041;-69
2023/03/30 03:35:05;;;;;;;9.20;3.03;;;;;;;13.86;63.59;100064.59;4150088;28;20033;-69
2023/03/30 03:37:09;;;;;;;13.43;4.05;;;;;;;13.81;63.75;100059.38;4150732;28;20038;-70
2023/03/30 03:39:12;;;;;;;12.27;3.53;;;;;;;13.79;63.97;100066.38;4157145;28;20051;-70
2023/03/30 03:41:15;;;;;;;11.40;2.83;;;;;;;13.81;64.04;100067.22;4152386;28;20052;-69
2023/03/30 03:43:19;;;;;;;15.35;4.18;;;;;;;13.94;63.09;100048.00;4147531;28;20046;-70
2023/03/30 03:45:22;;;;;;;16.90;4.22;;;;;;;13.93;63.75;100033.19;4144260;28;21640;-70
2023/03/30 03:47:32;;;;;;;9.93;2.97;;;;;;;13.84;62.89;100043.69;4150603;28;20072;-70
2023/03/30 03:49:35;;;;;;;9.73;2.70;;;;;;;13.82;63.09;100053.28;4157431;28;20041;-70
2023/03/30 03:51:39;;;;;;;11.40;4.15;;;;;;;13.80;63.13;100057.66;4152737;28;20125;-69
2023/03/30 03:53:42;;;;;;;6.45;2.20;;;;;;;13.84;62.81;100054.13;4123090;28;20097;-69
2023/03/30 03:55:47;;;;;;;16.08;4.00;;;;;;;13.88;62.70;100050.63;4164338;28;20037;-69
2023/03/30 03:57:50;;;;;;;17.30;3.08;;;;;;;13.92;63.06;100049.75;4143449;28;20128;-70
2023/03/30 03:59:55;;;;;;;17.02;3.65;;;;;;;13.89;62.83;100049.75;4146654;28;20041;-71
2023/03/30 04:01:58;;;;;;;11.43;2.58;;;;;;;13.90;62.54;100050.63;4144708;28;20100;-68
2023/03/30 04:04:01;;;;;;;8.82;3.25;;;;;;;13.88;62.99;100040.19;4156736;28;20052;-68
2023/03/30 04:06:04;;;;;;;14.63;3.80;;;;;;;13.88;63.11;100024.50;4129696;28;20048;-68
2023/03/30 04:08:10;;;;;;;14.32;3.35;;;;;;;13.86;63.66;100020.19;4142531;28;20518;-68
2023/03/30 04:10:14;;;;;;;9.10;3.10;;;;;;;13.85;63.42;100027.13;4148664;28;20495;-68
2023/03/30 04:12:32;;;;;;;9.23;2.85;;;;;;;13.84;63.55;100014.09;4154831;28;20038;-68
2023/03/30 04:14:45;;;;;;;10.10;2.40;;;;;;;13.85;63.63;100002.75;4146698;28;20115;-68
2023/03/30 04:17:07;;;;;;;9.82;2.88;;;;;;;13.83;63.55;99992.31;4163286;28;20467;-68
2023/03/30 04:19:34;;;;;;;9.57;2.72;;;;;;;13.81;63.83;99982.75;4143265;28;21583;-68
2023/03/30 04:21:58;;;;;;;10.63;2.78;;;;;;;13.86;63.20;99981.84;4150061;28;20088;-69
2023/03/30 04:24:23;;;;;;;12.20;2.90;;;;;;;13.87;63.10;99978.38;4159232;28;20514;-69
2023/03/30 04:26:47;;;;;;;12.48;3.05;;;;;;;13.87;62.90;99982.69;4140614;28;20054;-69
2023/03/30 04:29:15;;;;;;;11.00;3.30;;;;;;;13.87;63.16;99978.38;4145508;28;20053;-69
2023/03/30 04:31:41;;;;;;;9.23;2.53;;;;;;;13.85;63.61;99982.72;4143572;28;20133;-68
2023/03/30 04:34:08;;;;;;;19.55;3.30;;;;;;;13.81;63.27;99991.44;4158913;28;20053;-69
2023/03/30 04:36:27;;;;;;;13.52;2.42;;;;;;;13.81;63.79;99987.97;4151890;28;20589;-69
2023/03/30 04:38:58;;;;;;;7.68;2.55;;;;;;;13.78;64.48;99994.09;4153727;28;20568;-69
2023/03/30 04:41:32;;;;;;;14.32;3.47;;;;;;;13.78;63.89;99991.47;4147883;28;20096;-68
2023/03/30 04:43:45;;;;;;;7.00;2.50;;;;;;;13.77;64.63;99997.59;4162360;28;20602;-69
2023/03/30 04:46:01;;;;;;;9.05;2.97;;;;;;;13.76;64.20;100001.06;4147894;28;20045;-69
2023/03/30 04:48:07;;;;;;;10.98;3.50;;;;;;;13.78;64.04;99994.09;4150020;28;20075;-68
2023/03/30 04:50:28;;;;;;;11.30;2.97;;;;;;;13.78;64.19;99991.47;4163078;28;20085;-69
2023/03/30 04:52:56;;;;;;;19.05;3.67;;;;;;;13.79;63.81;99985.38;4152661;28;20045;-68
2023/03/30 04:55:23;;;;;;;14.00;3.55;;;;;;;13.81;63.95;99987.97;4140059;28;20407;-69
2023/03/30 04:57:53;;;;;;;7.15;2.65;;;;;;;13.81;63.41;99973.16;4152816;28;20523;-69
2023/03/30 05:00:26;;;;;;;10.77;3.53;;;;;;;13.76;63.89;99975.81;4145262;28;20145;-68
2023/03/30 05:02:52;;;;;;;14.63;3.35;;;;;;;13.72;64.55;99983.69;4130611;28;20498;-68
2023/03/30 05:05:15;;;;;;;14.27;3.40;;;;;;;13.74;64.44;99977.56;4135351;28;20038;-69
2023/03/30 05:07:41;;;;;;;7.25;2.47;;;;;;;13.70;64.50;99995.91;4140079;28;20539;-68
2023/03/30 05:10:00;;;;;;;12.07;3.70;;;;;;;13.65;64.61;99985.44;4146073;28;20569;-68
2023/03/30 05:12:18;;;;;;;12.48;3.63;;;;;;;13.69;64.83;99979.34;4159391;28;20042;-68
2023/03/30 05:14:42;;;;;;;10.13;3.40;;;;;;;13.68;65.31;99992.41;4149977;28;20251;-68
2023/03/30 05:16:54;;;;;;;7.90;2.58;;;;;;;13.48;66.41;99995.13;4160993;28;20112;-68
2023/03/30 05:18:57;;;;;;;12.10;3.47;;;;;;;13.52;66.47;100002.06;4175948;22;20045;-62
2023/03/30 05:21:32;;;;;;;12.75;3.60;;;;;;;13.57;65.93;100001.16;4129595;28;20053;-63
2023/03/30 05:23:50;;;;;;;11.65;3.28;;;;;;;13.65;66.02;100008.09;4138525;28;20454;-62
2023/03/30 05:26:12;;;;;;;14.18;3.50;;;;;;;13.66;66.12;100005.47;4156662;28;20491;-62
2023/03/30 05:28:38;;;;;;;12.15;3.55;;;;;;;13.68;65.73;99997.63;4142280;28;20049;-63
2023/03/30 05:30:56;;;;;;;11.45;3.97;;;;;;;13.75;66.05;100013.25;4138673;28;20133;-63
2023/03/30 05:33:23;;;;;;;10.48;2.90;;;;;;;13.79;66.03;100009.75;4133620;28;20492;-63
2023/03/30 05:35:45;;;;;;;13.15;5.00;;;;;;;13.72;66.14;100022.88;4137050;28;20046;-63
2023/03/30 05:37:58;;;;;;;16.02;3.70;;;;;;;13.68;66.68;100039.44;4143003;28;20046;-63
2023/03/30 05:40:27;;;;;;;15.57;3.58;;;;;;;13.66;66.93;100062.94;4138290;28;20076;-63
2023/03/30 05:42:47;;;;;;;17.77;3.45;;;;;;;13.69;67.19;100078.59;4122787;28;20073;-63
2023/03/30 05:45:05;;;;;;;12.52;3.15;;;;;;;13.70;66.71;100095.16;4138602;28;20042;-63
2023/03/30 05:47:27;;;;;;;18.02;4.22;;;;;;;13.72;67.71;100140.41;4149660;28;20574;-63
2023/03/30 05:49:41;;;;;;;15.05;4.57;;;;;;;13.67;69.24;100165.69;4144412;28;20042;-61
2023/03/30 05:51:58;;;;;;;13.07;3.78;;;;;;;13.53;71.31;100163.13;4143916;28;20140;-61
2023/03/30 05:54:32;;;;;;;24.17;5.43;;;;;;;13.41;72.48;100150.97;4143698;28;20108;-62
2023/03/30 05:56:58;;;;;;;17.98;4.55;;;;;;;13.32;73.12;100150.97;4150034;28;20468;-62
2023/03/30 05:59:06;;;;;;;15.77;4.15;;;;;;;13.26;73.20;100160.53;4140365;28;20045;-61
2023/03/30 06:01:21;;;;;;;10.95;4.57;;;;;;;13.15;74.37;100164.91;4122518;28;20072;-61
2023/03/30 06:03:26;;;;;;;14.48;3.83;;;;;;;13.12;74.59;100169.25;4117598;28;20050;-61
2023/03/30 06:05:29;;;;;;;14.63;4.43;;;;;;;13.15;74.59;100150.97;4143951;28;20034;-61
2023/03/30 06:07:32;;;;;;;22.33;5.50;;;;;;;13.24;74.34;100150.97;4144592;28;20045;-61
2023/03/30 06:09:36;;;;;;;13.35;3.78;;;;;;;13.26;74.56;100157.06;4118008;28;20066;-61
2023/03/30 06:11:46;;;;;;;14.73;4.57;;;;;;;13.33;74.33;100163.13;4130722;28;20127;-62
2023/03/30 06:13:54;;;;;;;17.75;4.15;;;;;;;13.36;74.55;100150.09;4137375;28;20037;-62
2023/03/30 06:15:57;;;;;;;12.88;4.30;;;;;;;13.40;74.66;100171.00;4122742;28;20046;-61
2023/03/30 06:18:04;;;;;;;16.13;4.30;;;;;;;13.40;75.38;100176.22;4129090;28;20608;-62
2023/03/30 06:20:12;;;;;;;12.90;4.50;;;;;;;13.40;74.90;100173.63;4130873;28;20504;-61
2023/03/30 06:22:20;;;;;;;18.42;4.97;;;;;;;13.37;75.62;100177.97;4162859;28;20042;-62
2023/03/30 06:24:39;;;;;;;21.27;5.10;;;;;;;13.24;75.61;100180.56;4137375;28;20038;-61
2023/03/30 06:26:42;;;;;;;24.23;7.32;;;;;;;13.18;75.90;100171.84;4131347;28;20519;-62
2023/03/30 06:28:46;;;;;;;28.05;7.13;;;;;;;13.19;76.14;100171.00;4147259;28;20042;-62
2023/03/30 06:30:49;;;;;;;19.65;5.63;;;;;;;13.23;75.79;100178.81;4142066;28;20538;-62
2023/03/30 06:32:55;;;;;;;24.30;7.50;;;;;;;13.19;76.45;100179.69;4152037;28;20092;-61
2023/03/30 06:35:22;;;;;;;32.17;9.07;;;;;;;13.18;76.50;100172.72;4140909;28;20053;-61
2023/03/30 06:37:27;;;;;;;21.30;5.65;;;;;;;13.21;76.77;100161.41;4128793;28;20512;-61
2023/03/30 06:39:30;;;;;;;15.00;4.32;;;;;;;13.20;76.10;100155.34;4141767;28;20037;-61
2023/03/30 06:41:33;;;;;;;14.77;4.97;;;;;;;13.23;75.82;100146.63;4122060;28;20047;-61
2023/03/30 06:43:39;;;;;;;14.23;4.78;;;;;;;13.17;75.86;100141.41;4129311;28;20128;-62
2023/03/30 06:45:51;;;;;;;13.68;4.72;;;;;;;13.21;75.82;100146.59;4133341;28;20042;-61
2023/03/30 06:47:54;;;;;;;17.70;6.55;;;;;;;13.23;76.53;100131.84;4145050;28;20049;-62
2023/03/30 06:49:58;;;;;;;18.05;6.47;;;;;;;13.23;76.65;100125.75;4142621;28;20427;-61
2023/03/30 06:52:21;;;;;;;21.42;7.50;;;;;;;13.27;76.75;100123.13;4143700;28;20122;-61
2023/03/30 06:54:24;;;;;;;21.58;6.47;;;;;;;13.24;76.53;100112.69;4157419;28;20076;-62
2023/03/30 06:56:33;;;;;;;22.92;6.45;;;;;;;13.26;76.62;100103.09;4164880;28;20101;-62
2023/03/30 06:58:45;;;;;;;20.00;5.72;;;;;;;13.22;77.04;100103.97;4165137;28;20043;-61
2023/03/30 07:00:49;;;;;;;22.07;6.77;;;;;;;13.19;77.76;100105.75;4144550;28;20125;-62
2023/03/30 07:03:12;;;;;;;15.32;6.03;;;;;;;13.20;77.47;100100.53;4157011;28;20050;-61
2023/03/30 07:05:39;;;;;;;11.35;4.53;;;;;;;13.20;77.25;100104.84;4129775;28;20117;-62
2023/03/30 07:08:01;;;;;;;16.80;4.70;;;;;;;13.19;77.35;100105.75;4160373;28;20461;-61
2023/03/30 07:10:09;;;;;;;21.55;4.78;;;;;;;13.18;77.55;100112.69;4146399;28;20086;-61
2023/03/30 07:12:12;;;;;;;12.35;4.38;;;;;;;13.18;77.90;100123.13;4147764;28;20041;-62
2023/03/30 07:14:14;;;;;;;11.10;4.10;;;;;;;13.24;77.58;100102.25;4139350;28;20118;-62
2023/03/30 07:16:18;;;;;;;10.98;3.70;;;;;;;13.28;77.13;100103.09;4120566;28;20097;-62
2023/03/30 07:18:22;;;;;;;15.40;4.82;;;;;;;13.25;77.66;100113.56;4152893;28;20131;-62
2023/03/30 07:20:25;;;;;;;10.10;3.42;;;;;;;13.14;77.57;100124.03;4147268;28;20034;-62
2023/03/30 07:22:40;;;;;;;10.98;4.65;;;;;;;13.12;78.19;100125.75;4138577;28;20056;-61
2023/03/30 07:24:44;;;;;;;10.95;3.45;;;;;;;13.06;77.66;100125.78;4147871;28;20092;-62
2023/03/30 07:26:47;;;;;;;8.15;3.17;;;;;;;13.05;77.42;100137.97;4145571;28;20426;-62
2023/03/30 07:28:50;;;;;;;6.55;3.05;;;;;;;13.02;77.34;100140.53;4134781;28;20763;-62
2023/03/30 07:31:04;;;;;;;11.25;4.15;;;;;;;13.10;76.89;100140.56;4141071;28;20053;-62
2023/03/30 07:33:08;;;;;;;11.95;3.63;;;;;;;13.07;77.49;100120.53;4122752;28;20046;-62
2023/03/30 07:35:12;;;;;;;10.95;4.00;;;;;;;13.11;77.33;100105.72;4141846;28;20039;-62
2023/03/30 07:37:15;;;;;;;17.05;3.53;;;;;;;13.05;77.31;100096.19;4130754;28;20407;-62
2023/03/30 07:39:23;;;;;;;13.95;4.78;;;;;;;12.99;78.14;100104.03;4146987;28;20062;-62
2023/03/30 07:41:27;;;;;;;8.63;2.90;;;;;;;12.99;78.16;100113.59;4132781;28;20033;-62
2023/03/30 07:43:33;;;;;;;8.18;3.35;;;;;;;12.99;78.02;100117.06;4160861;28;20048;-62
2023/03/30 07:45:36;;;;;;;9.20;3.45;;;;;;;12.98;78.01;100123.19;4145901;28;20097;-62
2023/03/30 07:47:41;;;;;;;7.40;3.05;;;;;;;12.99;78.21;100119.69;4158858;28;20107;-62
2023/03/30 07:49:44;;;;;;;8.57;3.10;;;;;;;12.96;78.34;100111.84;4162241;28;20041;-61
2023/03/30 07:51:47;;;;;;;6.88;2.90;;;;;;;13.01;78.00;100127.50;4158779;28;20088;-62
2023/03/30 07:53:58;;;;;;;8.80;3.38;;;;;;;12.97;78.05;100117.97;4141499;28;20038;-62
2023/03/30 07:56:10;;;;;;;8.10;3.42;;;;;;;12.99;77.96;100101.41;4142675;28;20511;-62
2023/03/30 07:58:22;;;;;;;10.63;3.47;;;;;;;12.89;78.54;100100.56;4146376;28;20100;-62
2023/03/30 08:00:26;;;;;;;8.15;3.00;;;;;;;12.88;78.32;100114.47;4130994;28;20046;-62
2023/03/30 08:02:48;;;;;;;10.30;3.78;;;;;;;12.87;78.66;100128.38;4140919;28;20077;-62
2023/03/30 08:04:52;;;;;;;9.75;4.18;;;;;;;12.91;78.38;100124.06;4144360;28;20073;-62
2023/03/30 08:07:09;;;;;;;8.20;3.22;;;;;;;12.98;78.28;100119.69;4161937;28;20446;-62
2023/03/30 08:09:12;;;;;;;13.10;4.20;;;;;;;12.97;78.57;100126.66;4147020;28;20080;-62
2023/03/30 08:11:15;;;;;;;9.00;3.55;;;;;;;13.03;78.33;100124.03;4158169;28;20038;-62
2023/03/30 08:13:18;;;;;;;8.95;3.63;;;;;;;13.06;78.42;100133.59;4153710;28;20048;-62
2023/03/30 08:15:25;;;;;;;9.02;3.55;;;;;;;13.11;78.48;100126.63;4159073;28;20581;-62
2023/03/30 08:17:28;;;;;;;12.55;3.92;;;;;;;13.16;78.45;100122.28;4155607;28;20132;-62
2023/03/30 08:19:31;;;;;;;9.02;3.45;;;;;;;13.14;78.14;100117.91;4161950;28;20451;-62
2023/03/30 08:21:34;;;;;;;13.63;4.35;;;;;;;13.16;78.65;100119.66;4140094;28;20111;-62
2023/03/30 08:23:37;;;;;;;12.20;4.35;;;;;;;13.20;78.56;100107.47;4136432;28;20038;-62
2023/03/30 08:25:39;;;;;;;13.02;4.68;;;;;;;13.25;78.33;100106.56;4157030;28;20103;-62
2023/03/30 08:27:42;;;;;;;8.38;4.15;;;;;;;13.16;78.73;100122.28;4148580;28;20049;-62
2023/03/30 08:29:45;;;;;;;9.80;4.38;;;;;;;13.13;78.66;100135.34;4162259;28;20064;-62
2023/03/30 08:31:50;;;;;;;8.18;4.07;;;;;;;13.16;79.08;100137.94;4162481;28;20503;-62
2023/03/30 08:33:53;;;;;;;11.75;4.45;;;;;;;13.18;79.24;100141.41;4156052;28;20033;-62
2023/03/30 08:35:56;;;;;;;9.68;3.70;;;;;;;13.30;79.36;100137.88;4151027;28;20041;-62
2023/03/30 08:37:59;;;;;;;8.07;2.95;;;;;;;13.27;79.36;100146.63;4154750;28;20085;-62
2023/03/30 08:40:04;;;;;;;10.02;4.30;;;;;;;13.31;79.75;100144.00;4139073;28;20378;-62
2023/03/30 08:42:12;;;;;;;;;;;;;;;13.28;79.12;100156.16;4163077;28;20120;-62
2023/03/30 08:44:25;;;;;;;9.38;3.95;;;;;;;13.31;79.32;100168.34;4159197;28;19932;-62
2023/03/30 08:46:30;;;;;;;9.02;4.65;;;;;;;13.42;79.30;100173.59;4161214;28;20033;-62
2023/03/30 08:48:36;;;;;;;12.35;3.88;;;;;;;13.48;79.26;100165.75;4157764;28;20132;-62
2023/03/30 08:50:40;;;;;;;11.32;4.20;;;;;;;13.48;79.26;100168.38;4139771;28;20463;-61
2023/03/30 08:52:43;;;;;;;7.85;3.60;;;;;;;13.54;79.40;100168.34;4157907;28;20045;-62
2023/03/30 08:54:47;;;;;;;15.48;3.67;;;;;;;13.59;79.28;100168.31;4144712;28;20145;-62
2023/03/30 08:56:59;;;;;;;8.38;3.80;;;;;;;13.68;79.68;100157.88;4141841;28;20081;-62
2023/03/30 08:59:17;;;;;;;12.77;4.72;;;;;;;13.71;79.13;100139.56;4161105;28;20596;-62
2023/03/30 09:01:23;;;;;;;9.23;3.70;;;;;;;13.65;79.38;100144.78;4155800;28;20030;-62
2023/03/30 09:03:31;;;;;;;14.35;3.90;;;;;;;13.66;79.50;100143.06;4148290;28;20136;-63
2023/03/30 09:05:43;;;;;;;12.93;4.40;;;;;;;13.72;79.43;100136.06;4146747;28;20048;-64
2023/03/30 09:07:53;;;;;;;10.43;4.32;;;;;;;13.79;78.81;100123.84;4163105;28;20048;-63
2023/03/30 09:09:57;;;;;;;9.60;4.03;;;;;;;13.75;79.14;100135.19;4155510;28;20029;-62
2023/03/30 09:12:08;;;;;;;12.55;4.25;;;;;;;13.75;79.82;100141.25;4136006;28;20042;-62
2023/03/30 09:14:19;;;;;;;12.32;4.20;;;;;;;13.82;79.45;100126.44;4122846;28;20484;-63
2023/03/30 09:16:33;;;;;;;11.43;4.53;;;;;;;13.82;79.43;100121.22;4156915;28;20048;-63
2023/03/30 09:18:39;;;;;;;8.67;3.83;;;;;;;13.81;79.52;100137.75;4145499;28;20047;-63
2023/03/30 09:20:44;;;;;;;10.20;3.85;;;;;;;13.87;79.85;100127.31;4162281;28;20518;-62
2023/03/30 09:22:49;;;;;;;8.55;2.85;;;;;;;13.83;79.70;100122.06;4143351;28;20124;-63
2023/03/30 09:24:54;;;;;;;;;;;;;;;13.73;79.41;100142.16;4126148;28;20038;-62
2023/03/30 09:27:02;;;;;;;15.85;3.78;;;;;;;13.74;79.73;100159.56;4154460;28;20371;-63
2023/03/30 09:29:14;;;;;;;10.68;4.03;;;;;;;13.59;79.69;100161.38;4155227;28;20046;-62
2023/03/30 09:31:22;;;;;;;7.03;2.88;;;;;;;13.54;78.78;100141.38;4148605;28;20041;-62
2023/03/30 09:33:31;;;;;;;7.72;2.90;;;;;;;13.65;78.79;100136.94;4159471;28;20040;-62
2023/03/30 09:35:39;;;;;;;11.45;4.15;;;;;;;13.66;77.36;100109.97;4144230;28;20459;-62
2023/03/30 09:37:43;;;;;;;15.13;3.35;;;;;;;13.70;76.23;100150.03;4122945;28;20039;-62
2023/03/30 09:39:47;;;;;;;12.27;3.83;;;;;;;13.74;75.58;100159.56;4153649;28;20402;-62
2023/03/30 09:42:00;;;;;;;9.40;3.30;;;;;;;13.89;74.15;100142.97;4150670;28;20042;-62
2023/03/30 09:44:03;;;;;;;9.23;3.80;;;;;;;13.89;72.66;100149.06;4148663;28;20042;-63
2023/03/30 09:46:08;;;;;;;8.80;3.47;;;;;;;14.02;73.28;100149.00;4141108;28;20033;-63
2023/03/30 09:48:11;;;;;;;10.82;3.20;;;;;;;14.12;72.14;100150.72;4160476;28;20041;-62
2023/03/30 09:50:18;;;;;;;18.75;3.38;;;;;;;14.14;71.69;100149.81;4138872;28;20052;-62
2023/03/30 09:52:23;;;;;;;10.90;3.10;;;;;;;14.23;72.35;100168.94;4158127;28;20442;-62
2023/03/30 09:54:35;;;;;;;11.10;4.05;;;;;;;14.37;70.90;100166.22;4151634;28;20034;-62
2023/03/30 09:56:45;;;;;;;7.68;2.90;;;;;;;14.34;67.69;100140.09;4154031;28;20038;-63
2023/03/30 09:58:49;;;;;;;7.22;2.95;;;;;;;14.36;67.28;100123.53;4154316;28;20096;-62
2023/03/30 10:01:02;;;;;;;10.65;3.28;;;;;;;14.36;66.82;100148.81;4154225;28;20522;-62
2023/03/30 10:03:07;;;;;;;7.55;3.10;;;;;;;14.38;66.60;100152.28;4139525;28;20077;-62